PHN weather

St Clair County International Airport
Port Huron, Michigan, United States

Public forecast

Using degrees Fahrenheit for public forecast. Weather courtesy of forecast.io.

METAR (pilot weather report)

Retrieved 2019/04/25 11:39 UTC (0 seconds ago):

KPHN 251139Z AUTO 00000KT 10SM SCT090 OVC110 09/04 A2990 RMK AO2

TAF (pilot weather forecast)

Closest forecast is Chris Hadfield Airport, 11.0 nm (20.4 km) ENE. Retrieved 2019/04/25 08:51 UTC (3 hours ago):

TAF TAF CYZR 250750Z 2508/2520 17005KT P6SM SCT140 FM251200 19010KT P6SM BKN100 RMK FCST BASED ON AUTO OBS. NXT FCST BY 251400Z